Time;durP1;ratioP1;P1;durP2;ratioP2;P2;SDS_P1;SDS_P2;PMS_P1;PMS_P2;Temp;Humidity;BMP_temperature;BMP_pressure;BME280_temperature;BME280_humidity;BME280_pressure;Samples;Min_cycle;Max_cycle;Signal;HPM_P1;HPM_P2
2022/11/29 05:00:39;;;;;;;15.80;9.57;;;4.30;99.90;;;;;;5922310;23;20732;-70
2022/11/29 05:03:16;;;;;;;17.15;9.65;;;4.30;99.90;;;;;;4957092;28;20213;-70
2022/11/29 05:05:50;;;;;;;13.23;9.32;;;4.30;99.90;;;;;;4962314;28;20260;-70
2022/11/29 05:08:29;;;;;;;18.85;11.68;;;4.30;99.90;;;;;;4961273;28;20210;-70
2022/11/29 05:11:03;;;;;;;13.02;6.65;;;4.30;99.90;;;;;;4959106;28;20241;-70
2022/11/29 05:13:38;;;;;;;10.80;8.15;;;4.30;99.90;;;;;;4966731;28;20233;-70
2022/11/29 05:16:19;;;;;;;20.98;9.43;;;4.30;99.90;;;;;;4954341;29;20244;-70
2022/11/29 05:18:58;;;;;;;14.45;10.25;;;4.30;99.90;;;;;;4952763;29;20214;-70
2022/11/29 05:21:35;;;;;;;19.58;11.27;;;4.30;99.90;;;;;;4958145;28;20232;-69
2022/11/29 05:24:11;;;;;;;12.65;11.48;;;4.30;99.90;;;;;;4961218;28;20684;-70
2022/11/29 05:26:47;;;;;;;15.68;10.32;;;4.30;99.90;;;;;;4953759;28;20220;-71
2022/11/29 05:29:21;;;;;;;14.77;11.38;;;4.30;99.90;;;;;;4958388;28;20219;-70
2022/11/29 05:31:57;;;;;;;24.33;10.20;;;4.30;99.90;;;;;;4951423;29;20719;-71
2022/11/29 05:34:54;;;;;;;29.30;12.98;;;4.30;99.90;;;;;;4953143;28;20224;-70
2022/11/29 05:37:30;;;;;;;13.52;6.88;;;4.40;99.90;;;;;;4951945;28;20206;-69
2022/11/29 05:40:31;;;;;;;13.88;10.35;;;4.40;99.90;;;;;;4952366;28;20652;-70
2022/11/29 05:43:12;;;;;;;14.05;10.13;;;4.40;99.90;;;;;;4951445;28;20259;-69
2022/11/29 05:45:46;;;;;;;12.75;6.90;;;4.40;99.90;;;;;;4961386;28;20213;-68
2022/11/29 05:48:24;;;;;;;16.80;8.77;;;4.40;99.90;;;;;;4962821;28;20209;-70
2022/11/29 05:50:59;;;;;;;20.00;9.10;;;4.40;99.90;;;;;;4958881;28;20233;-70
2022/11/29 05:53:31;;;;;;;19.60;8.73;;;4.40;99.90;;;;;;4960869;28;20241;-70
2022/11/29 05:56:06;;;;;;;16.15;8.63;;;4.40;99.90;;;;;;4964075;28;20218;-69
2022/11/29 05:58:46;;;;;;;14.23;8.75;;;4.50;99.90;;;;;;4966844;28;20202;-69
2022/11/29 06:01:20;;;;;;;12.15;8.25;;;4.50;99.90;;;;;;4961909;28;20347;-69
2022/11/29 06:03:57;;;;;;;21.70;9.60;;;4.50;99.90;;;;;;4960746;28;20221;-69
2022/11/29 06:06:38;;;;;;;15.38;7.57;;;4.50;99.90;;;;;;4957747;28;20897;-69
2022/11/29 06:09:14;;;;;;;12.85;7.68;;;4.50;99.90;;;;;;4952476;29;20577;-71
2022/11/29 06:11:45;;;;;;;11.05;7.95;;;4.50;99.90;;;;;;4955855;28;20375;-70
2022/11/29 06:14:32;;;;;;;12.68;5.38;;;4.50;99.90;;;;;;4951381;29;20237;-70
2022/11/29 06:17:36;;;;;;;18.35;7.20;;;4.50;99.90;;;;;;4954580;28;20209;-71
2022/11/29 06:20:42;;;;;;;11.05;9.07;;;4.50;99.90;;;;;;4960465;28;20220;-71
2022/11/29 06:23:35;;;;;;;10.82;7.00;;;4.50;99.90;;;;;;4961707;28;20206;-70
2022/11/29 06:26:22;;;;;;;16.50;11.15;;;4.50;99.90;;;;;;4954363;28;20217;-70
2022/11/29 06:29:01;;;;;;;13.73;11.20;;;4.50;99.90;;;;;;4959808;28;20204;-71
2022/11/29 06:31:36;;;;;;;9.30;8.40;;;4.50;99.90;;;;;;4958331;28;20312;-70
2022/11/29 06:34:09;;;;;;;14.38;8.57;;;4.50;99.90;;;;;;4961461;28;20672;-70
2022/11/29 06:36:42;;;;;;;11.27;8.98;;;4.50;99.90;;;;;;4958454;28;20216;-69
2022/11/29 06:39:09;;;;;;;11.98;8.07;;;4.50;99.90;;;;;;4965587;28;20216;-70
2022/11/29 06:41:37;;;;;;;17.13;11.90;;;4.50;99.90;;;;;;4966497;28;20229;-70
2022/11/29 06:44:05;;;;;;;17.00;8.88;;;4.50;99.90;;;;;;4973005;28;20209;-70
2022/11/29 06:46:44;;;;;;;17.52;9.55;;;4.50;99.90;;;;;;4961214;28;20276;-69
2022/11/29 06:49:14;;;;;;;15.73;10.05;;;4.50;99.90;;;;;;4970638;28;20208;-70
2022/11/29 06:51:50;;;;;;;16.60;7.55;;;4.50;99.90;;;;;;4962342;28;20225;-70
2022/11/29 06:54:31;;;;;;;11.50;8.25;;;4.50;99.90;;;;;;4956859;28;20235;-69
2022/11/29 06:57:06;;;;;;;19.27;12.05;;;4.50;99.90;;;;;;4964574;28;20209;-70
2022/11/29 06:59:46;;;;;;;28.80;11.82;;;4.50;99.90;;;;;;4962001;28;20221;-69
2022/11/29 07:02:27;;;;;;;11.23;7.72;;;4.50;99.90;;;;;;4962049;28;20246;-70
2022/11/29 07:05:05;;;;;;;20.15;10.80;;;4.60;99.90;;;;;;4961955;28;20213;-68
2022/11/29 07:07:34;;;;;;;23.52;10.57;;;4.60;99.90;;;;;;4963749;28;20216;-69
2022/11/29 07:10:03;;;;;;;13.55;10.93;;;4.60;99.90;;;;;;4958791;28;20213;-70
2022/11/29 07:12:31;;;;;;;16.08;9.98;;;4.60;99.90;;;;;;4965607;28;20311;-70
2022/11/29 07:14:58;;;;;;;19.33;9.57;;;4.60;99.90;;;;;;4965493;28;20704;-71
2022/11/29 07:17:33;;;;;;;23.23;8.95;;;4.60;99.90;;;;;;4964364;28;20690;-70
2022/11/29 07:20:09;;;;;;;16.52;11.10;;;4.60;99.90;;;;;;4953957;29;20217;-69
2022/11/29 07:22:53;;;;;;;28.90;11.23;;;4.60;99.90;;;;;;4956621;28;20597;-69
2022/11/29 07:25:29;;;;;;;31.38;10.60;;;4.60;99.90;;;;;;4958353;28;20576;-68
2022/11/29 07:28:06;;;;;;;21.88;10.57;;;4.70;99.90;;;;;;4975147;28;20209;-70
2022/11/29 07:30:42;;;;;;;24.13;11.18;;;4.70;99.90;;;;;;4961543;28;20220;-68
2022/11/29 07:33:18;;;;;;;19.33;10.07;;;4.70;99.90;;;;;;4965347;28;20200;-71
2022/11/29 07:35:51;;;;;;;13.45;10.57;;;4.70;99.90;;;;;;4959380;28;20592;-68
2022/11/29 07:38:27;;;;;;;16.70;11.27;;;4.70;99.90;;;;;;4959803;28;20965;-69
2022/11/29 07:41:00;;;;;;;22.83;11.20;;;4.70;99.90;;;;;;4961865;28;20244;-69
2022/11/29 07:43:40;;;;;;;24.15;12.00;;;4.70;99.90;;;;;;4961809;28;20210;-71
2022/11/29 07:46:07;;;;;;;19.80;10.23;;;4.70;99.90;;;;;;4968655;28;20632;-71
2022/11/29 07:48:39;;;;;;;15.43;10.90;;;4.70;99.90;;;;;;4961784;28;22115;-69
2022/11/29 07:51:08;;;;;;;12.32;9.98;;;4.80;99.90;;;;;;4958434;28;20241;-71
2022/11/29 07:53:40;;;;;;;15.40;10.63;;;4.80;99.90;;;;;;4965124;28;20230;-68
2022/11/29 07:56:08;;;;;;;15.15;11.90;;;4.80;99.90;;;;;;4954168;29;20232;-70
2022/11/29 07:58:36;;;;;;;21.42;12.55;;;4.80;99.90;;;;;;4955344;28;20217;-71
2022/11/29 08:01:03;;;;;;;19.63;9.93;;;4.80;99.90;;;;;;4953953;28;20249;-71
2022/11/29 08:03:34;;;;;;;19.10;11.15;;;4.80;99.90;;;;;;4967220;28;20260;-70
2022/11/29 08:06:01;;;;;;;14.73;9.52;;;4.80;99.90;;;;;;4962118;28;20301;-69
2022/11/29 08:08:30;;;;;;;23.88;11.00;;;4.80;99.90;;;;;;4961496;28;20212;-70
2022/11/29 08:10:59;;;;;;;19.20;13.05;;;4.80;99.90;;;;;;4961891;28;20234;-71
2022/11/29 08:13:30;;;;;;;26.60;13.73;;;4.80;99.90;;;;;;4967014;28;20206;-70
2022/11/29 08:15:57;;;;;;;14.38;10.38;;;4.80;99.90;;;;;;4962486;28;20594;-70
2022/11/29 08:18:24;;;;;;;17.75;9.95;;;4.80;99.90;;;;;;4953381;29;20248;-70
2022/11/29 08:20:51;;;;;;;17.75;13.93;;;4.80;99.90;;;;;;4954711;28;20244;-70
2022/11/29 08:23:19;;;;;;;16.95;12.32;;;4.90;99.90;;;;;;4953830;28;20301;-70
2022/11/29 08:25:48;;;;;;;32.78;14.85;;;4.90;99.90;;;;;;4955922;28;20202;-69
2022/11/29 08:28:21;;;;;;;20.02;11.10;;;4.90;99.90;;;;;;4962921;28;20213;-71
2022/11/29 08:30:48;;;;;;;13.73;12.23;;;4.90;99.90;;;;;;4957139;28;20320;-70
2022/11/29 08:33:15;;;;;;;23.83;11.10;;;4.90;99.90;;;;;;4961252;28;20209;-69
2022/11/29 08:35:45;;;;;;;23.58;13.10;;;4.90;99.90;;;;;;4953397;28;20244;-71
2022/11/29 08:38:12;;;;;;;11.02;9.30;;;4.90;99.90;;;;;;4965513;28;20205;-70
2022/11/29 08:40:42;;;;;;;17.02;9.35;;;4.90;99.90;;;;;;4955099;28;20768;-70
2022/11/29 08:43:09;;;;;;;21.20;12.48;;;5.00;99.90;;;;;;4954151;29;20217;-71
2022/11/29 08:45:37;;;;;;;14.30;11.90;;;5.00;99.90;;;;;;4953324;29;20697;-69
2022/11/29 08:48:05;;;;;;;33.38;12.73;;;5.00;99.90;;;;;;4954063;29;20220;-70
2022/11/29 08:50:32;;;;;;;18.75;9.80;;;5.00;99.90;;;;;;4960257;28;20316;-69
2022/11/29 08:55:47;;;;;;;18.42;11.30;;;5.10;99.90;;;;;;4960217;28;20332;-69
2022/11/29 08:58:20;;;;;;;21.65;13.13;;;5.10;99.90;;;;;;4958211;28;20646;-69
2022/11/29 09:00:48;;;;;;;18.13;11.48;;;5.10;99.90;;;;;;4954385;28;20229;-69
2022/11/29 09:06:08;;;;;;;18.15;13.85;;;5.10;99.90;;;;;;4961356;28;20208;-70
2022/11/29 09:08:35;;;;;;;11.18;9.23;;;5.20;99.90;;;;;;4961048;28;20748;-69
2022/11/29 09:11:18;;;;;;;12.77;9.27;;;5.20;99.90;;;;;;4953046;28;20233;-71
2022/11/29 09:13:54;;;;;;;17.50;10.60;;;5.20;99.90;;;;;;4960640;28;20249;-71
2022/11/29 09:16:25;;;;;;;15.20;10.27;;;5.20;99.90;;;;;;4955801;28;20292;-71
2022/11/29 09:18:56;;;;;;;25.73;9.43;;;5.20;99.90;;;;;;4972509;28;20683;-70
2022/11/29 09:21:28;;;;;;;12.38;11.25;;;5.20;99.90;;;;;;4971082;28;20241;-70
2022/11/29 09:23:57;;;;;;;20.00;11.35;;;5.20;99.90;;;;;;4951207;28;20210;-71
2022/11/29 09:26:32;;;;;;;23.02;10.25;;;5.20;99.90;;;;;;4957808;28;20574;-70
2022/11/29 09:29:04;;;;;;;17.08;12.38;;;5.20;99.90;;;;;;4961652;28;20286;-69
2022/11/29 09:31:34;;;;;;;14.02;9.57;;;5.20;99.90;;;;;;4959474;28;20226;-69
2022/11/29 09:34:03;;;;;;;15.48;9.25;;;5.20;99.90;;;;;;4955514;28;20257;-70
2022/11/29 09:36:31;;;;;;;15.10;9.93;;;5.30;99.90;;;;;;4958810;28;20237;-69
2022/11/29 09:39:03;;;;;;;19.73;9.10;;;5.30;99.90;;;;;;4962271;28;20246;-70
2022/11/29 09:41:48;;;;;;;22.42;11.85;;;5.30;99.90;;;;;;4953024;28;20255;-70
2022/11/29 09:44:22;;;;;;;15.93;9.63;;;5.40;99.90;;;;;;4957610;28;20630;-69
2022/11/29 09:47:01;;;;;;;14.00;9.90;;;5.40;99.90;;;;;;4964501;28;20213;-71
2022/11/29 09:49:55;;;;;;;20.40;8.73;;;5.40;99.90;;;;;;4963297;28;20616;-69
2022/11/29 09:52:36;;;;;;;25.58;11.32;;;5.40;99.90;;;;;;4968204;28;20265;-69
2022/11/29 09:55:20;;;;;;;17.17;10.07;;;5.50;99.90;;;;;;4969876;28;20211;-70
2022/11/29 09:57:49;;;;;;;14.52;12.45;;;5.50;99.90;;;;;;4969963;28;20222;-70
2022/11/29 10:00:20;;;;;;;15.93;10.68;;;5.50;99.90;;;;;;4969859;28;20215;-70
2022/11/29 10:02:53;;;;;;;19.92;10.00;;;5.60;99.90;;;;;;4968174;28;20221;-71
2022/11/29 10:05:27;;;;;;;26.45;15.10;;;5.60;99.90;;;;;;4973030;28;20198;-70
2022/11/29 10:08:02;;;;;;;18.05;12.07;;;5.70;99.90;;;;;;4959297;29;20284;-69
2022/11/29 10:10:39;;;;;;;14.15;9.50;;;5.70;99.90;;;;;;4958519;28;20238;-69
2022/11/29 10:13:22;;;;;;;19.38;8.75;;;5.70;99.90;;;;;;4963255;28;20346;-69
2022/11/29 10:15:54;;;;;;;13.30;10.43;;;5.80;99.90;;;;;;4953846;28;20237;-68
2022/11/29 10:18:32;;;;;;;12.98;9.45;;;5.80;99.90;;;;;;4964940;28;20274;-70
2022/11/29 10:21:06;;;;;;;15.07;12.25;;;5.80;99.90;;;;;;4965775;28;20240;-69
2022/11/29 10:23:38;;;;;;;16.27;10.10;;;5.90;99.90;;;;;;4959277;28;20233;-70
2022/11/29 10:26:07;;;;;;;19.52;9.80;;;5.90;99.90;;;;;;4965998;28;20211;-70
2022/11/29 10:28:37;;;;;;;16.48;13.23;;;5.90;99.90;;;;;;4953008;28;20222;-69
2022/11/29 10:31:29;;;;;;;21.02;10.07;;;5.90;99.90;;;;;;4967601;28;20233;-68
2022/11/29 10:34:02;;;;;;;11.48;9.43;;;6.00;99.90;;;;;;4968796;28;20212;-69
2022/11/29 10:36:44;;;;;;;25.50;14.00;;;6.00;99.90;;;;;;4951330;28;20225;-70
2022/11/29 10:39:17;;;;;;;16.33;11.30;;;6.00;99.90;;;;;;4954845;28;20210;-69
2022/11/29 10:41:54;;;;;;;22.58;13.38;;;6.00;99.90;;;;;;4959994;28;20653;-70
2022/11/29 10:44:21;;;;;;;16.13;14.50;;;6.00;99.90;;;;;;4965655;28;20576;-71
2022/11/29 10:46:49;;;;;;;20.17;12.32;;;6.00;99.90;;;;;;4963403;28;20289;-70
2022/11/29 10:49:20;;;;;;;13.88;10.98;;;6.00;99.90;;;;;;4962392;28;20257;-71
2022/11/29 10:51:50;;;;;;;20.25;12.65;;;5.90;99.90;;;;;;4963945;28;20230;-70
2022/11/29 10:54:32;;;;;;;19.05;11.65;;;6.00;99.90;;;;;;4964650;28;20217;-70
2022/11/29 10:57:01;;;;;;;17.08;10.70;;;6.00;99.90;;;;;;4968621;28;20315;-70
2022/11/29 10:59:29;;;;;;;25.70;14.50;;;6.00;99.90;;;;;;4952255;28;20221;-70
2022/11/29 11:01:59;;;;;;;20.75;14.80;;;6.00;99.90;;;;;;4962025;28;20238;-72
2022/11/29 11:04:31;;;;;;;18.10;12.48;;;6.10;99.90;;;;;;4951289;29;20210;-70
2022/11/29 11:07:01;;;;;;;19.27;13.85;;;6.10;99.90;;;;;;4951737;28;20201;-72
2022/11/29 11:09:35;;;;;;;19.83;11.55;;;6.10;99.90;;;;;;4951431;29;20213;-70
2022/11/29 11:12:07;;;;;;;23.52;12.57;;;6.10;99.90;;;;;;4952095;29;20285;-67
2022/11/29 11:14:37;;;;;;;18.00;14.55;;;6.10;99.90;;;;;;4952120;28;20222;-69
2022/11/29 11:17:24;;;;;;;16.63;9.55;;;6.10;99.90;;;;;;4952438;29;20313;-72
2022/11/29 11:19:59;;;;;;;41.55;13.02;;;6.10;99.90;;;;;;4952544;29;20256;-73
2022/11/29 11:22:27;;;;;;;26.40;12.07;;;6.10;99.90;;;;;;4951160;29;20896;-72
2022/11/29 11:25:00;;;;;;;19.70;14.57;;;6.10;99.90;;;;;;4959050;28;20213;-70
2022/11/29 11:27:31;;;;;;;17.95;11.55;;;6.10;99.90;;;;;;4963762;28;20562;-70
2022/11/29 11:29:59;;;;;;;18.08;12.20;;;6.20;99.90;;;;;;4956358;29;20246;-71
2022/11/29 11:32:26;;;;;;;10.95;7.43;;;6.20;99.90;;;;;;4955880;29;20223;-71
2022/11/29 11:34:54;;;;;;;20.90;12.52;;;6.20;99.90;;;;;;4959227;28;20236;-72
2022/11/29 11:37:25;;;;;;;24.38;13.27;;;6.20;99.90;;;;;;4964312;28;20230;-72
2022/11/29 11:39:55;;;;;;;24.83;15.82;;;6.20;99.90;;;;;;4964557;28;20685;-72
2022/11/29 11:42:37;;;;;;;24.15;11.63;;;6.20;99.90;;;;;;4955998;28;20253;-71
2022/11/29 11:45:20;;;;;;;21.02;12.93;;;6.20;99.90;;;;;;4955785;29;20681;-72
2022/11/29 11:47:51;;;;;;;20.90;10.45;;;6.20;99.90;;;;;;4956098;29;20199;-72
2022/11/29 11:50:27;;;;;;;20.95;11.15;;;6.20;99.90;;;;;;4966662;28;20206;-73
2022/11/29 11:52:57;;;;;;;15.40;12.52;;;6.20;99.90;;;;;;4966558;28;20719;-72
2022/11/29 11:55:37;;;;;;;14.63;10.73;;;6.30;99.90;;;;;;4954637;29;20296;-71
2022/11/29 11:58:15;;;;;;;24.60;9.77;;;6.20;99.90;;;;;;4956558;29;20293;-72
2022/11/29 12:00:45;;;;;;;15.52;9.43;;;6.20;99.90;;;;;;4955669;29;20655;-71
2022/11/29 12:03:28;;;;;;;24.00;14.75;;;6.20;99.90;;;;;;4959767;28;20211;-70
2022/11/29 12:05:58;;;;;;;20.98;11.73;;;6.20;99.90;;;;;;4967133;28;20214;-70
2022/11/29 12:08:28;;;;;;;13.40;10.30;;;6.10;99.90;;;;;;4974791;28;20249;-72
2022/11/29 12:11:00;;;;;;;13.50;10.15;;;6.10;99.90;;;;;;4974737;28;20321;-72
2022/11/29 12:13:33;;;;;;;19.08;12.02;;;6.10;99.90;;;;;;4974696;28;20301;-71
2022/11/29 12:16:03;;;;;;;19.80;11.93;;;6.10;99.90;;;;;;4971100;28;20230;-70
2022/11/29 12:18:37;;;;;;;30.58;12.65;;;6.10;99.90;;;;;;4955386;29;20611;-70
2022/11/29 12:21:12;;;;;;;20.63;11.25;;;6.20;99.90;;;;;;4955028;29;20230;-68
2022/11/29 12:23:45;;;;;;;22.27;12.30;;;6.20;99.90;;;;;;4955145;29;20284;-72
2022/11/29 12:26:17;;;;;;;19.52;9.93;;;6.20;99.90;;;;;;4955652;29;20206;-70
2022/11/29 12:28:45;;;;;;;14.32;10.80;;;6.20;99.90;;;;;;4955821;28;20221;-71
2022/11/29 12:31:27;;;;;;;23.25;10.93;;;6.20;99.90;;;;;;4953544;28;20230;-70
2022/11/29 12:34:02;;;;;;;16.70;10.07;;;6.20;99.90;;;;;;4955233;29;20208;-72
2022/11/29 12:36:36;;;;;;;15.32;10.13;;;6.20;99.90;;;;;;4953551;28;20228;-71
2022/11/29 12:39:14;;;;;;;14.68;11.38;;;6.20;99.90;;;;;;4965759;28;20216;-70
2022/11/29 12:41:49;;;;;;;19.60;11.85;;;6.20;99.90;;;;;;4954738;29;20226;-70
2022/11/29 12:44:29;;;;;;;25.30;11.85;;;6.20;99.90;;;;;;4954941;29;20221;-71
2022/11/29 12:47:03;;;;;;;19.65;12.43;;;6.20;99.90;;;;;;4954920;29;20210;-71
2022/11/29 12:49:39;;;;;;;15.50;10.80;;;6.10;99.90;;;;;;4954813;29;20321;-73
2022/11/29 12:52:14;;;;;;;10.60;9.60;;;6.20;99.90;;;;;;4963213;28;20249;-73
2022/11/29 12:54:57;;;;;;;19.00;11.73;;;6.10;99.90;;;;;;4966210;28;20206;-71
2022/11/29 12:57:32;;;;;;;19.77;11.23;;;6.10;99.90;;;;;;4974665;28;20229;-71
2022/11/29 13:00:08;;;;;;;17.92;12.50;;;6.10;99.90;;;;;;4972321;28;20216;-73
2022/11/29 13:02:49;;;;;;;15.00;9.88;;;6.10;99.90;;;;;;4964714;28;20707;-72
2022/11/29 13:05:25;;;;;;;16.73;10.50;;;6.10;99.90;;;;;;4965536;28;20214;-73
2022/11/29 13:08:10;;;;;;;20.00;13.20;;;6.10;99.90;;;;;;4964801;28;20590;-72
2022/11/29 13:10:55;;;;;;;14.73;10.38;;;6.10;99.90;;;;;;4967770;28;20240;-72
2022/11/29 13:13:31;;;;;;;23.35;12.65;;;6.10;99.90;;;;;;4964082;28;20213;-72
2022/11/29 13:16:06;;;;;;;17.25;10.43;;;6.10;99.90;;;;;;4957500;28;20234;-73
2022/11/29 13:18:40;;;;;;;13.38;10.43;;;6.10;99.90;;;;;;4954970;29;20215;-73
2022/11/29 13:21:13;;;;;;;25.40;12.43;;;6.00;99.90;;;;;;4953543;29;20230;-71
2022/11/29 13:23:47;;;;;;;12.13;8.60;;;6.00;99.90;;;;;;4969105;28;20210;-72
2022/11/29 13:26:16;;;;;;;19.80;10.65;;;6.00;99.90;;;;;;4965271;28;20285;-70
2022/11/29 13:28:45;;;;;;;16.17;11.13;;;6.00;99.90;;;;;;4974263;28;20677;-72
2022/11/29 13:31:15;;;;;;;17.30;10.27;;;6.10;99.90;;;;;;4972085;28;20543;-72
2022/11/29 13:33:50;;;;;;;18.90;11.00;;;6.00;99.90;;;;;;4960470;28;20218;-73
2022/11/29 13:36:24;;;;;;;13.25;9.20;;;6.00;99.90;;;;;;4953399;28;20890;-73
2022/11/29 13:39:02;;;;;;;18.02;10.93;;;6.10;99.90;;;;;;4967053;28;20217;-73
2022/11/29 13:41:34;;;;;;;34.38;11.75;;;6.00;99.90;;;;;;4953500;29;20226;-73
2022/11/29 13:44:08;;;;;;;16.88;10.93;;;6.00;99.90;;;;;;4953119;28;20241;-73
2022/11/29 13:46:43;;;;;;;20.65;10.63;;;6.10;99.90;;;;;;4955383;29;20270;-73
2022/11/29 13:49:20;;;;;;;23.13;11.13;;;6.00;99.90;;;;;;4953872;28;20217;-72
2022/11/29 13:51:47;;;;;;;12.57;11.15;;;6.10;99.90;;;;;;4952934;29;20288;-72
2022/11/29 13:54:27;;;;;;;37.55;10.57;;;6.00;99.90;;;;;;4958821;28;20752;-72
2022/11/29 13:57:03;;;;;;;19.85;11.15;;;6.00;99.90;;;;;;4960604;28;20679;-71
2022/11/29 13:59:32;;;;;;;27.45;14.80;;;6.00;99.90;;;;;;4953324;29;20238;-72
2022/11/29 14:01:59;;;;;;;17.95;12.75;;;6.00;99.90;;;;;;4952940;29;20788;-72
2022/11/29 14:04:30;;;;;;;13.13;10.13;;;6.00;99.90;;;;;;4951936;29;20262;-73
2022/11/29 14:07:11;;;;;;;20.38;11.35;;;6.00;99.90;;;;;;4957561;28;20266;-72
2022/11/29 14:09:48;;;;;;;28.42;14.05;;;6.00;99.90;;;;;;4959581;28;20252;-71
2022/11/29 14:12:38;;;;;;;15.55;11.20;;;6.00;99.90;;;;;;4960147;28;20780;-71
2022/11/29 14:15:17;;;;;;;25.30;10.07;;;6.00;99.90;;;;;;4953001;28;20211;-69
2022/11/29 14:17:54;;;;;;;13.95;10.05;;;6.00;99.90;;;;;;4959501;28;20225;-71
2022/11/29 14:20:54;;;;;;;25.50;11.18;;;5.90;99.90;;;;;;4964293;28;20206;-70
2022/11/29 14:23:36;;;;;;;14.70;11.10;;;5.90;99.90;;;;;;4963186;28;20232;-72
2022/11/29 14:26:27;;;;;;;10.95;7.70;;;5.90;99.90;;;;;;4972820;28;20210;-71
2022/11/29 14:28:59;;;;;;;12.05;8.57;;;5.80;99.90;;;;;;4955748;28;20558;-71
2022/11/29 14:32:02;;;;;;;16.70;9.95;;;5.80;99.90;;;;;;4953134;29;20229;-72
2022/11/29 14:34:50;;;;;;;15.82;8.57;;;5.80;99.90;;;;;;4970422;28;20205;-70
2022/11/29 14:37:39;;;;;;;18.05;11.10;;;5.80;99.90;;;;;;4959718;28;20304;-71
2022/11/29 14:40:20;;;;;;;32.00;15.10;;;5.80;99.90;;;;;;4951469;29;20210;-71
2022/11/29 14:42:48;;;;;;;19.35;11.52;;;5.80;99.90;;;;;;4951174;29;20214;-70
2022/11/29 14:45:26;;;;;;;23.77;12.40;;;5.80;99.90;;;;;;4954411;28;20270;-71
2022/11/29 14:47:52;;;;;;;18.92;10.85;;;5.70;99.90;;;;;;4964114;28;20739;-71
2022/11/29 14:50:30;;;;;;;24.35;11.52;;;5.70;99.90;;;;;;4969585;28;20236;-71
2022/11/29 14:52:58;;;;;;;21.55;13.75;;;5.70;99.90;;;;;;4951766;29;20272;-71
2022/11/29 14:55:36;;;;;;;24.02;11.50;;;5.70;99.90;;;;;;4957042;28;20210;-72
2022/11/29 14:58:21;;;;;;;27.38;14.75;;;5.70;99.90;;;;;;4957040;28;20276;-73
2022/11/29 15:01:07;;;;;;;22.15;15.00;;;5.70;99.90;;;;;;4956232;28;20276;-70
2022/11/29 15:03:43;;;;;;;23.13;12.73;;;5.70;99.90;;;;;;4963833;28;20210;-72
2022/11/29 15:06:15;;;;;;;20.77;10.65;;;5.70;99.90;;;;;;4963766;28;20201;-71
2022/11/29 15:08:50;;;;;;;23.52;13.93;;;5.70;99.90;;;;;;4965029;28;20642;-72
2022/11/29 15:11:26;;;;;;;20.00;13.82;;;5.70;99.90;;;;;;4967253;28;20246;-71
2022/11/29 15:13:59;;;;;;;26.23;14.52;;;5.60;99.90;;;;;;4967943;28;20227;-71
2022/11/29 15:16:51;;;;;;;38.30;18.10;;;5.60;99.90;;;;;;4969155;28;20307;-72
2022/11/29 15:19:44;;;;;;;17.88;11.25;;;5.70;99.90;;;;;;4968352;28;20205;-71
2022/11/29 15:22:16;;;;;;;27.50;12.18;;;5.70;99.90;;;;;;4967559;28;20266;-71
2022/11/29 15:24:50;;;;;;;14.50;8.70;;;5.70;99.90;;;;;;4955218;29;20219;-72
2022/11/29 15:27:17;;;;;;;19.02;12.27;;;5.70;99.90;;;;;;4956895;29;20208;-71
2022/11/29 15:29:47;;;;;;;29.83;13.63;;;5.60;99.90;;;;;;4957760;29;20207;-72
2022/11/29 15:32:19;;;;;;;18.75;12.57;;;5.60;99.90;;;;;;4956316;28;20238;-71
2022/11/29 15:34:50;;;;;;;31.48;15.32;;;5.60;99.90;;;;;;4956044;28;20211;-71
2022/11/29 15:37:22;;;;;;;19.38;11.45;;;5.60;99.90;;;;;;4957522;28;20316;-71
2022/11/29 15:40:01;;;;;;;13.40;11.60;;;5.60;99.90;;;;;;4966976;28;20676;-72
2022/11/29 15:42:28;;;;;;;17.63;11.30;;;5.60;99.90;;;;;;4961213;28;20261;-72
2022/11/29 15:44:54;;;;;;;28.25;14.13;;;5.60;99.90;;;;;;4960139;28;20207;-73
2022/11/29 15:47:24;;;;;;;18.23;11.23;;;5.60;99.90;;;;;;4963121;28;20204;-72
2022/11/29 15:49:52;;;;;;;11.70;10.48;;;5.60;99.90;;;;;;4965868;28;20217;-71
2022/11/29 15:52:25;;;;;;;23.25;11.95;;;5.60;99.90;;;;;;4952798;28;20229;-72
2022/11/29 15:54:56;;;;;;;21.75;11.40;;;5.60;99.90;;;;;;4961468;28;20209;-73
2022/11/29 15:57:27;;;;;;;21.73;15.73;;;5.60;99.90;;;;;;4963610;28;20433;-73
2022/11/29 15:59:56;;;;;;;25.67;14.32;;;5.60;99.90;;;;;;4960262;28;20210;-71
2022/11/29 16:02:27;;;;;;;17.83;10.60;;;5.60;99.90;;;;;;4963315;28;20313;-71
2022/11/29 16:04:57;;;;;;;24.35;13.20;;;5.60;99.90;;;;;;4960165;28;20273;-70
2022/11/29 16:07:25;;;;;;;14.27;12.88;;;5.60;99.90;;;;;;4958341;28;20200;-69
2022/11/29 16:09:57;;;;;;;13.95;11.30;;;5.60;99.90;;;;;;4969276;28;20232;-70
2022/11/29 16:12:24;;;;;;;25.52;13.77;;;5.60;99.90;;;;;;4961366;28;20309;-71
2022/11/29 16:14:54;;;;;;;38.35;12.40;;;5.60;99.90;;;;;;4961693;28;20220;-71
2022/11/29 16:17:22;;;;;;;22.50;13.15;;;5.60;99.90;;;;;;4969688;28;20257;-70
2022/11/29 16:19:50;;;;;;;20.88;13.15;;;5.60;99.90;;;;;;4958931;28;20213;-71
2022/11/29 16:22:22;;;;;;;16.55;10.45;;;5.60;99.90;;;;;;4972400;28;21962;-71
2022/11/29 16:24:59;;;;;;;26.63;11.60;;;5.60;99.90;;;;;;4969135;28;20286;-71
2022/11/29 16:27:26;;;;;;;15.63;11.43;;;5.60;99.90;;;;;;4971052;28;20207;-71
2022/11/29 16:29:54;;;;;;;31.48;11.95;;;5.60;99.90;;;;;;4970405;28;20212;-71
2022/11/29 16:32:27;;;;;;;17.85;12.63;;;5.60;99.90;;;;;;4969652;28;20221;-71
2022/11/29 16:34:57;;;;;;;32.20;14.60;;;5.60;99.90;;;;;;4963924;28;20229;-70
2022/11/29 16:37:26;;;;;;;18.65;15.73;;;5.60;99.90;;;;;;4964754;28;20292;-69
2022/11/29 16:39:57;;;;;;;18.90;13.38;;;5.60;99.90;;;;;;4964470;28;20278;-70
2022/11/29 16:42:25;;;;;;;21.23;13.07;;;5.60;99.90;;;;;;4955092;28;20229;-70
2022/11/29 16:45:29;;;;;;;33.28;13.20;;;5.60;99.90;;;;;;4958100;28;20221;-70
2022/11/29 16:47:58;;;;;;;17.60;11.77;;;5.60;99.90;;;;;;4952843;29;20214;-70
2022/11/29 16:50:27;;;;;;;47.10;14.10;;;5.60;99.90;;;;;;4962286;28;20209;-70
2022/11/29 16:52:54;;;;;;;26.38;10.90;;;5.60;99.90;;;;;;4969402;28;20213;-71
2022/11/29 16:55:21;;;;;;;21.90;11.82;;;5.60;99.90;;;;;;4957499;28;20217;-71
2022/11/29 16:57:48;;;;;;;30.10;10.70;;;5.60;99.90;;;;;;4966398;28;20226;-71
2022/11/29 17:00:30;;;;;;;26.60;14.10;;;5.60;99.90;;;;;;4962130;28;20289;-70
2022/11/29 17:02:57;;;;;;;34.08;12.05;;;5.60;99.90;;;;;;4961939;28;20297;-69
2022/11/29 17:05:25;;;;;;;24.50;12.98;;;5.60;99.90;;;;;;4966226;28;20210;-71
2022/11/29 17:07:52;;;;;;;21.95;12.52;;;5.60;99.90;;;;;;4953407;28;20205;-71
2022/11/29 17:10:23;;;;;;;27.95;15.55;;;5.60;99.90;;;;;;4956997;28;20638;-70
2022/11/29 17:12:50;;;;;;;28.05;12.98;;;5.60;99.90;;;;;;4957385;28;20205;-71
2022/11/29 17:15:16;;;;;;;20.45;10.55;;;5.60;99.90;;;;;;4961570;28;20667;-71
2022/11/29 17:17:43;;;;;;;29.50;14.35;;;5.60;99.90;;;;;;4965030;28;20707;-71
2022/11/29 17:20:11;;;;;;;24.88;14.60;;;5.60;99.90;;;;;;4957757;28;20214;-70
2022/11/29 17:22:40;;;;;;;23.92;14.85;;;5.60;99.90;;;;;;4953934;28;20252;-71
2022/11/29 17:25:07;;;;;;;18.77;14.15;;;5.60;99.90;;;;;;4961774;29;20210;-71
2022/11/29 17:27:33;;;;;;;17.45;12.55;;;5.60;99.90;;;;;;4966064;29;20199;-70
2022/11/29 17:30:00;;;;;;;41.22;14.70;;;5.60;99.90;;;;;;4966477;28;20211;-71
2022/11/29 17:32:27;;;;;;;18.80;11.45;;;5.60;99.90;;;;;;4974188;28;20237;-72
2022/11/29 17:34:54;;;;;;;23.38;14.27;;;5.60;99.90;;;;;;4965428;28;20214;-69
2022/11/29 17:37:20;;;;;;;16.45;11.23;;;5.60;99.90;;;;;;4966443;28;20224;-73
2022/11/29 17:39:48;;;;;;;27.75;12.02;;;5.60;99.90;;;;;;4974834;28;20209;-71
2022/11/29 17:42:15;;;;;;;20.88;11.90;;;5.60;99.90;;;;;;4971555;28;20279;-73
2022/11/29 17:44:41;;;;;;;20.92;12.35;;;5.60;99.90;;;;;;4968461;28;20209;-73
2022/11/29 17:47:08;;;;;;;27.50;14.48;;;5.60;99.90;;;;;;4964376;28;20210;-72
2022/11/29 17:49:35;;;;;;;28.58;14.18;;;5.60;99.90;;;;;;4959447;28;20217;-73
2022/11/29 17:52:02;;;;;;;23.02;10.77;;;5.60;99.90;;;;;;4962276;28;20227;-71
2022/11/29 17:54:31;;;;;;;13.15;10.00;;;5.60;99.90;;;;;;4968565;28;20202;-72
2022/11/29 17:57:02;;;;;;;23.80;11.40;;;5.60;99.90;;;;;;4965501;28;20732;-70
2022/11/29 17:59:28;;;;;;;30.90;13.77;;;5.60;99.90;;;;;;4957245;28;20222;-72
2022/11/29 18:01:55;;;;;;;35.33;15.10;;;5.60;99.90;;;;;;4958947;28;20250;-71
2022/11/29 18:04:22;;;;;;;19.63;12.82;;;5.60;99.90;;;;;;4963620;28;20214;-71
2022/11/29 18:06:49;;;;;;;38.22;16.45;;;5.60;99.90;;;;;;4959390;28;20206;-69
2022/11/29 18:09:17;;;;;;;30.75;18.67;;;5.60;99.90;;;;;;4960441;28;20248;-70
2022/11/29 18:11:46;;;;;;;25.17;14.23;;;5.60;99.90;;;;;;4961705;28;20241;-71
2022/11/29 18:14:16;;;;;;;19.50;13.32;;;5.60;99.90;;;;;;4964474;28;20213;-70
2022/11/29 18:16:44;;;;;;;19.60;13.43;;;5.60;99.90;;;;;;4966140;28;20211;-71